Almyra, Arkansas
Current Conditions -  °F | °C
As of 9:15 PM on Saturday 20 Dec 2014 (Local Time) from KSGT Reporting Station
NA  
Wind Chill: 32°   Ceiling: NA
Heat Index: 37°   Visibility: NA
Dew Point: 34°   Wind: 7mph
Humidity: 87%   Direction: 20°NNE
Pressure: 30.26"   Gusts: NA
Location:  34.41°N, 91.41°W
Report Text: KSGT 210315Z 02006KT 03/01 A3026 RMK AO1
Loading
Personal Weather Stations






























Interactive Weather Map New forecast layout! Learn more

10-Day Weather Forecast

Advertisements
Track Severe Weather on mobile